createdAt,value
2022-09-26T00:01:19.692Z,90.73
2022-09-26T00:03:56.554Z,90.58
2022-09-26T00:06:23.850Z,91.02
2022-09-26T00:08:50.809Z,91.06
2022-09-26T00:11:24.232Z,90.93
2022-09-26T00:13:56.515Z,90.67
2022-09-26T00:16:23.451Z,90.66
2022-09-26T00:18:51.484Z,90.20
2022-09-26T00:21:18.702Z,90.56
2022-09-26T00:23:45.854Z,90.68
2022-09-26T00:26:17.590Z,90.98
2022-09-26T00:28:44.031Z,91.13
2022-09-26T00:31:14.347Z,91.11
2022-09-26T00:33:40.797Z,90.93
2022-09-26T00:36:07.379Z,90.91
2022-09-26T00:38:34.291Z,90.75
2022-09-26T00:41:01.635Z,90.55
2022-09-26T00:43:40.007Z,90.51
2022-09-26T00:46:19.832Z,90.74
2022-09-26T00:48:51.885Z,90.67
2022-09-26T00:51:18.468Z,90.31
2022-09-26T00:53:48.166Z,90.12
2022-09-26T00:56:25.244Z,89.88
2022-09-26T00:58:55.837Z,89.91
2022-09-26T01:01:22.604Z,90.14
2022-09-26T01:03:50.757Z,90.30
2022-09-26T01:06:18.171Z,89.95
2022-09-26T01:08:50.970Z,89.58
2022-09-26T01:11:17.531Z,89.66
2022-09-26T01:13:45.084Z,89.84
2022-09-26T01:16:11.542Z,89.81
2022-09-26T01:18:38.097Z,90.34
2022-09-26T01:21:16.501Z,90.35
2022-09-26T01:23:57.743Z,90.28
2022-09-26T01:26:28.161Z,90.22
2022-09-26T01:29:21.267Z,90.42
2022-09-26T01:32:07.807Z,90.49
2022-09-26T01:34:58.459Z,90.09
2022-09-26T01:37:55.577Z,89.50
2022-09-26T01:40:42.203Z,89.66
2022-09-26T01:43:31.856Z,89.23
2022-09-26T01:46:28.925Z,89.05
2022-09-26T01:49:00.354Z,89.73
2022-09-26T01:51:33.388Z,89.70
2022-09-26T01:54:10.620Z,89.70
2022-09-26T01:56:39.558Z,89.60
2022-09-26T01:59:22.719Z,89.75
2022-09-26T02:01:51.597Z,90.10
2022-09-26T02:04:22.205Z,90.24
2022-09-26T02:06:57.995Z,90.20
2022-09-26T02:09:35.377Z,90.34
2022-09-26T02:12:06.386Z,90.38
2022-09-26T02:14:36.283Z,90.11
2022-09-26T02:17:11.775Z,90.31
2022-09-26T02:19:58.862Z,90.33
2022-09-26T02:22:34.270Z,90.07
2022-09-26T02:25:02.330Z,90.34
2022-09-26T02:27:29.090Z,90.54
2022-09-26T02:29:55.785Z,90.60
2022-09-26T02:32:29.204Z,90.91
2022-09-26T02:34:56.389Z,90.78
2022-09-26T02:37:23.877Z,90.99
2022-09-26T02:39:52.047Z,90.84
2022-09-26T02:42:36.669Z,90.88
2022-09-26T02:45:15.330Z,90.95
2022-09-26T02:48:04.201Z,90.78
2022-09-26T02:50:56.794Z,90.78
2022-09-26T02:53:41.898Z,90.48
2022-09-26T02:56:18.911Z,90.23
2022-09-26T02:59:03.334Z,90.36
2022-09-26T03:01:48.909Z,90.74
2022-09-26T03:04:27.788Z,90.76
2022-09-26T03:06:57.831Z,90.74
2022-09-26T03:09:26.827Z,90.56
2022-09-26T03:11:54.648Z,90.24
2022-09-26T03:14:21.138Z,90.28
2022-09-26T03:16:49.377Z,90.23
2022-09-26T03:19:30.536Z,90.21
2022-09-26T03:21:57.499Z,90.10
2022-09-26T03:24:24.709Z,89.91
2022-09-26T03:26:51.212Z,89.72
2022-09-26T03:29:18.847Z,89.88
2022-09-26T03:31:45.347Z,89.85
2022-09-26T03:34:11.801Z,90.00
2022-09-26T03:36:38.535Z,89.55
2022-09-26T03:39:05.254Z,89.18
2022-09-26T03:41:31.575Z,89.07
2022-09-26T03:43:57.884Z,88.72
2022-09-26T03:46:24.223Z,88.37
2022-09-26T03:48:50.599Z,88.62
2022-09-26T03:51:17.502Z,88.40
2022-09-26T03:53:45.430Z,87.97
2022-09-26T03:56:14.495Z,87.41
2022-09-26T03:58:42.391Z,87.16
2022-09-26T04:01:11.694Z,87.46
2022-09-26T04:03:40.310Z,87.97
2022-09-26T04:06:08.673Z,87.59
2022-09-26T04:08:37.770Z,87.52
2022-09-26T04:11:06.821Z,87.76
2022-09-26T04:13:50.676Z,87.64
2022-09-26T04:16:18.797Z,87.69
2022-09-26T04:18:45.364Z,87.70
2022-09-26T04:21:13.175Z,87.54
2022-09-26T04:23:41.343Z,87.75
2022-09-26T04:26:17.522Z,87.72
2022-09-26T04:28:47.352Z,87.55
2022-09-26T04:31:13.763Z,87.12
2022-09-26T04:33:40.650Z,87.36
2022-09-26T04:36:10.472Z,86.87
2022-09-26T04:38:37.287Z,86.95
2022-09-26T04:41:04.826Z,86.85
2022-09-26T04:43:31.419Z,86.73
2022-09-26T04:45:57.926Z,86.13
2022-09-26T04:48:24.725Z,86.24
2022-09-26T04:50:51.268Z,86.08
2022-09-26T04:53:17.641Z,85.72
2022-09-26T04:55:45.603Z,85.63
2022-09-26T04:58:12.218Z,85.84
2022-09-26T05:00:47.779Z,85.97
2022-09-26T05:03:15.392Z,85.77
2022-09-26T05:05:43.217Z,85.89
2022-09-26T05:08:09.617Z,85.59
2022-09-26T05:10:36.021Z,85.54
2022-09-26T05:13:02.314Z,85.60
2022-09-26T05:15:29.479Z,85.05
2022-09-26T05:18:01.042Z,84.84
2022-09-26T05:20:27.834Z,85.09
2022-09-26T05:22:56.813Z,85.28
2022-09-26T05:25:23.187Z,85.51
2022-09-26T05:27:50.446Z,85.02
2022-09-26T05:30:16.909Z,84.89
2022-09-26T05:32:43.232Z,84.93
2022-09-26T05:35:09.577Z,84.71
2022-09-26T05:37:35.930Z,84.78
2022-09-26T05:40:02.281Z,84.92
2022-09-26T05:42:28.614Z,84.94
2022-09-26T05:44:54.928Z,85.08
2022-09-26T05:47:21.259Z,85.11
2022-09-26T05:49:47.557Z,84.93
2022-09-26T05:52:13.892Z,84.45
2022-09-26T05:54:40.301Z,84.22
2022-09-26T05:57:06.636Z,84.22
2022-09-26T05:59:32.968Z,83.83
2022-09-26T06:01:59.569Z,84.01
2022-09-26T06:04:26.022Z,83.43
2022-09-26T06:06:52.330Z,83.41
2022-09-26T06:09:18.666Z,83.20
2022-09-26T06:11:45.025Z,83.16
2022-09-26T06:14:11.318Z,82.91
2022-09-26T06:16:37.737Z,82.67
2022-09-26T06:19:04.188Z,82.59
2022-09-26T06:21:30.520Z,82.52
2022-09-26T06:23:56.962Z,82.58
2022-09-26T06:26:26.147Z,82.49
2022-09-26T06:28:57.439Z,81.86
2022-09-26T06:31:23.863Z,81.64
2022-09-26T06:33:51.127Z,81.86
2022-09-26T06:36:17.452Z,81.75
2022-09-26T06:38:43.785Z,80.38
2022-09-26T06:41:10.105Z,80.15
2022-09-26T06:43:36.725Z,79.85
2022-09-26T06:46:05.578Z,79.18
2022-09-26T06:48:31.934Z,79.73
2022-09-26T06:50:58.271Z,80.14
2022-09-26T06:53:24.639Z,79.31
2022-09-26T06:55:51.002Z,79.27
2022-09-26T06:58:17.438Z,78.85
2022-09-26T07:00:43.909Z,77.69
2022-09-26T07:03:10.606Z,77.17
2022-09-26T07:05:36.957Z,77.10
2022-09-26T07:08:03.411Z,77.45
2022-09-26T07:10:29.779Z,77.35
2022-09-26T07:13:04.145Z,77.34
2022-09-26T07:15:31.654Z,76.69
2022-09-26T07:17:57.999Z,76.62
2022-09-26T07:20:24.421Z,76.97
2022-09-26T07:22:50.735Z,76.55
2022-09-26T07:25:17.029Z,76.83
2022-09-26T07:27:43.423Z,76.14
2022-09-26T07:30:10.146Z,76.29
2022-09-26T07:32:36.515Z,75.74
2022-09-26T07:35:03.383Z,75.76
2022-09-26T07:37:30.695Z,75.92
2022-09-26T07:40:01.223Z,74.52
2022-09-26T07:42:28.098Z,74.28
2022-09-26T07:45:20.835Z,73.65
2022-09-26T07:47:40.779Z,72.93
2022-09-26T07:50:07.450Z,72.99
2022-09-26T07:52:33.828Z,72.11
2022-09-26T07:55:00.156Z,71.45
2022-09-26T07:57:26.497Z,72.15
2022-09-26T07:59:52.811Z,71.60
2022-09-26T08:02:24.465Z,71.69
2022-09-26T08:04:51.648Z,71.54
2022-09-26T08:07:17.961Z,70.82
2022-09-26T08:09:44.360Z,69.82
2022-09-26T08:12:10.693Z,69.60
2022-09-26T08:14:37.113Z,69.57
2022-09-26T08:17:03.910Z,69.58
2022-09-26T08:19:30.306Z,70.10
2022-09-26T08:21:56.689Z,69.37
2022-09-26T08:24:23.058Z,69.90
2022-09-26T08:26:49.402Z,68.53
2022-09-26T08:29:15.835Z,68.98
2022-09-26T08:31:42.380Z,68.55
2022-09-26T08:34:08.995Z,68.54
2022-09-26T08:36:35.410Z,68.56
2022-09-26T08:39:01.735Z,67.21
2022-09-26T08:41:52.580Z,67.69
2022-09-26T08:44:39.884Z,67.09
2022-09-26T08:47:18.403Z,66.90
2022-09-26T08:50:11.218Z,66.39
2022-09-26T08:52:52.148Z,65.97
2022-09-26T08:55:25.887Z,65.33
2022-09-26T08:58:14.563Z,66.10
2022-09-26T09:00:41.433Z,66.71
2022-09-26T09:03:10.600Z,66.50
2022-09-26T09:05:43.012Z,67.10
2022-09-26T09:08:18.966Z,67.50
2022-09-26T09:11:14.402Z,65.92
2022-09-26T09:14:11.018Z,67.42
2022-09-26T09:16:54.709Z,66.67
2022-09-26T09:19:30.125Z,66.48
2022-09-26T09:22:25.840Z,66.29
2022-09-26T09:25:09.600Z,65.39
2022-09-26T09:28:05.560Z,66.17
2022-09-26T09:30:43.467Z,65.44
2022-09-26T09:33:36.298Z,66.28
2022-09-26T09:36:11.384Z,66.49
2022-09-26T09:38:42.457Z,67.30
2022-09-26T09:41:17.600Z,66.87
2022-09-26T09:43:53.750Z,66.84
2022-09-26T09:46:29.453Z,67.79
2022-09-26T09:49:08.074Z,67.14
2022-09-26T09:52:09.679Z,68.75
2022-09-26T09:55:04.329Z,69.54
2022-09-26T09:57:54.917Z,69.82
2022-09-26T10:00:23.557Z,69.34
2022-09-26T10:03:15.656Z,69.20
2022-09-26T10:05:45.897Z,69.90
2022-09-26T10:08:20.716Z,70.35
2022-09-26T10:10:54.633Z,70.05
2022-09-26T10:13:24.846Z,70.40
2022-09-26T10:16:20.862Z,70.58
2022-09-26T10:19:05.950Z,71.64
2022-09-26T10:21:37.290Z,72.32
2022-09-26T10:24:03.998Z,73.06
2022-09-26T10:26:33.331Z,73.60
2022-09-26T10:29:02.225Z,74.14
2022-09-26T10:31:38.599Z,73.64
2022-09-26T10:34:23.236Z,73.25
2022-09-26T10:36:49.588Z,73.38
2022-09-26T10:39:19.683Z,74.12
2022-09-26T10:41:47.186Z,74.37
2022-09-26T10:44:25.459Z,74.65
2022-09-26T10:46:54.535Z,74.54
2022-09-26T10:49:27.049Z,74.87
2022-09-26T10:52:08.371Z,74.33
2022-09-26T10:54:42.223Z,74.83
2022-09-26T10:57:19.476Z,74.94
2022-09-26T10:59:48.285Z,75.37
2022-09-26T11:02:20.539Z,75.85
2022-09-26T11:04:47.494Z,75.84
2022-09-26T11:07:22.992Z,75.84
2022-09-26T11:09:49.349Z,74.76
2022-09-26T11:12:27.837Z,76.35
2022-09-26T11:14:59.682Z,77.58
2022-09-26T11:17:42.871Z,78.09
2022-09-26T11:20:13.822Z,78.28
2022-09-26T11:22:53.784Z,79.11
2022-09-26T11:25:27.763Z,79.32
2022-09-26T11:28:15.809Z,80.03
2022-09-26T11:30:46.980Z,80.19
2022-09-26T11:33:14.767Z,81.08
2022-09-26T11:36:13.768Z,81.98
2022-09-26T11:38:50.232Z,82.86
2022-09-26T11:41:51.681Z,82.33
2022-09-26T11:44:28.374Z,81.83
2022-09-26T11:47:30.766Z,81.23
2022-09-26T11:50:27.334Z,81.50
2022-09-26T11:53:13.843Z,81.39
2022-09-26T11:56:14.265Z,80.68
2022-09-26T11:58:46.991Z,80.69
2022-09-26T12:01:39.800Z,80.39
2022-09-26T12:04:19.118Z,80.07
2022-09-26T12:06:56.269Z,81.29
2022-09-26T12:09:45.833Z,81.64
2022-09-26T12:12:41.129Z,81.06
2022-09-26T12:15:36.715Z,81.09
2022-09-26T12:18:08.924Z,80.90
2022-09-26T12:20:45.171Z,80.78
2022-09-26T12:23:29.813Z,80.97
2022-09-26T12:26:05.166Z,81.10
2022-09-26T12:28:42.668Z,80.61
2022-09-26T12:31:54.127Z,81.13
2022-09-26T12:34:51.031Z,81.14
2022-09-26T12:37:36.112Z,81.21
2022-09-26T12:40:26.024Z,81.69
2022-09-26T12:43:22.047Z,80.84
2022-09-26T12:46:14.713Z,81.33
2022-09-26T12:48:53.282Z,81.93
2022-09-26T12:51:29.857Z,81.63
2022-09-26T12:54:12.095Z,82.42
2022-09-26T12:57:15.778Z,81.95
2022-09-26T12:59:57.030Z,81.89
2022-09-26T13:02:39.450Z,82.31
2022-09-26T13:05:14.733Z,82.00
2022-09-26T13:07:40.989Z,81.57
2022-09-26T13:10:32.187Z,80.89
2022-09-26T13:13:01.550Z,81.17
2022-09-26T13:15:48.239Z,81.46
2022-09-26T13:18:24.281Z,81.55
2022-09-26T13:20:59.998Z,81.81
2022-09-26T13:23:37.745Z,81.41
2022-09-26T13:26:11.394Z,79.93
2022-09-26T13:29:12.850Z,80.00
2022-09-26T13:31:37.183Z,79.99
2022-09-26T13:34:29.251Z,79.85
2022-09-26T13:36:59.106Z,78.91
2022-09-26T13:39:29.868Z,77.72
2022-09-26T13:42:20.875Z,76.92
2022-09-26T13:45:16.223Z,75.82
2022-09-26T13:47:54.130Z,74.91
2022-09-26T13:50:35.864Z,74.90
2022-09-26T13:53:14.395Z,74.66
2022-09-26T13:55:41.056Z,75.55
2022-09-26T13:58:20.851Z,74.19
2022-09-26T14:00:47.874Z,74.72
2022-09-26T14:03:14.306Z,74.43
2022-09-26T14:05:43.652Z,74.86
2022-09-26T14:08:22.104Z,74.65
2022-09-26T14:10:53.232Z,74.75
2022-09-26T14:13:33.330Z,75.10
2022-09-26T14:16:02.976Z,74.89
2022-09-26T14:18:41.829Z,75.44
2022-09-26T14:21:10.953Z,75.23
2022-09-26T14:23:41.901Z,76.27
2022-09-26T14:26:40.866Z,75.79
2022-09-26T14:29:46.597Z,76.54
2022-09-26T14:32:21.375Z,76.97
2022-09-26T14:34:53.422Z,77.34
2022-09-26T14:37:29.484Z,77.29
2022-09-26T14:40:10.803Z,77.40
2022-09-26T14:42:43.166Z,78.50
2022-09-26T14:45:44.972Z,78.46
2022-09-26T14:48:11.273Z,78.54
2022-09-26T14:50:55.559Z,77.78
2022-09-26T14:53:32.081Z,79.31
2022-09-26T14:56:16.171Z,79.49
2022-09-26T14:58:42.539Z,79.63
2022-09-26T15:01:16.833Z,80.16
2022-09-26T15:03:49.444Z,79.71
2022-09-26T15:06:15.940Z,80.16
2022-09-26T15:08:42.614Z,80.30
2022-09-26T15:11:32.734Z,78.58
2022-09-26T15:14:10.417Z,78.59
2022-09-26T15:16:42.898Z,78.14
2022-09-26T15:19:15.887Z,77.86
2022-09-26T15:21:44.984Z,77.77
2022-09-26T15:24:23.401Z,78.91
2022-09-26T15:26:49.844Z,78.95
2022-09-26T15:29:16.721Z,78.90
2022-09-26T15:31:44.859Z,79.81
2022-09-26T15:34:23.744Z,80.01
2022-09-26T15:36:56.262Z,79.11
2022-09-26T15:39:31.661Z,78.87
2022-09-26T15:41:59.644Z,79.67
2022-09-26T15:44:26.082Z,80.43
2022-09-26T15:46:52.459Z,80.11
2022-09-26T15:49:21.503Z,80.51
2022-09-26T15:51:52.995Z,80.88
2022-09-26T15:54:28.841Z,80.88
2022-09-26T15:57:01.551Z,81.15
2022-09-26T15:59:40.683Z,80.95
2022-09-26T16:02:22.461Z,81.42
2022-09-26T16:04:52.185Z,82.32
2022-09-26T16:07:24.772Z,81.74
2022-09-26T16:09:51.445Z,81.71
2022-09-26T16:12:20.668Z,81.88
2022-09-26T16:14:50.492Z,82.11
2022-09-26T16:17:28.157Z,81.52
2022-09-26T16:19:57.345Z,82.39
2022-09-26T16:22:26.637Z,80.44
2022-09-26T16:24:53.089Z,80.77
2022-09-26T16:27:24.904Z,80.71
2022-09-26T16:29:52.340Z,80.09
2022-09-26T16:32:20.926Z,81.08
2022-09-26T16:34:48.715Z,81.22
2022-09-26T16:37:20.557Z,81.17
2022-09-26T16:39:57.220Z,81.69
2022-09-26T16:42:27.350Z,81.86
2022-09-26T16:44:54.001Z,83.12
2022-09-26T16:47:31.592Z,83.40
2022-09-26T16:50:25.280Z,83.70
2022-09-26T16:52:51.846Z,83.67
2022-09-26T16:55:18.271Z,84.57
2022-09-26T16:57:56.551Z,84.94
2022-09-26T17:00:25.577Z,85.79
2022-09-26T17:02:51.989Z,85.69
2022-09-26T17:05:21.421Z,86.02
2022-09-26T17:07:49.515Z,85.49
2022-09-26T17:10:17.737Z,85.62
2022-09-26T17:12:44.312Z,86.34
2022-09-26T17:15:17.531Z,86.41
2022-09-26T17:17:43.884Z,86.83
2022-09-26T17:20:13.175Z,86.77
2022-09-26T17:22:39.497Z,86.89
2022-09-26T17:25:06.458Z,87.60
2022-09-26T17:27:33.019Z,87.69
2022-09-26T17:30:01.582Z,87.98
2022-09-26T17:32:33.897Z,88.25
2022-09-26T17:35:12.927Z,88.08
2022-09-26T17:37:39.886Z,88.29
2022-09-26T17:40:12.716Z,88.49
2022-09-26T17:42:39.056Z,88.11
2022-09-26T17:45:05.947Z,88.77
2022-09-26T17:47:32.287Z,89.09
2022-09-26T17:49:59.149Z,89.20
2022-09-26T17:52:31.419Z,89.73
2022-09-26T17:55:07.359Z,90.41
2022-09-26T17:57:38.227Z,90.15
2022-09-26T18:00:08.880Z,90.07
2022-09-26T18:02:50.792Z,90.76
2022-09-26T18:05:20.522Z,90.84
2022-09-26T18:07:50.671Z,90.85
2022-09-26T18:10:20.288Z,91.11
2022-09-26T18:12:54.649Z,91.58
2022-09-26T18:15:20.953Z,91.49
2022-09-26T18:17:48.225Z,91.34
2022-09-26T18:20:14.611Z,91.53
2022-09-26T18:22:40.969Z,91.60
2022-09-26T18:25:11.549Z,91.47
2022-09-26T18:27:38.236Z,91.29
2022-09-26T18:30:05.463Z,91.14
2022-09-26T18:32:35.955Z,91.10
2022-09-26T18:35:02.506Z,90.95
2022-09-26T18:37:28.862Z,90.77
2022-09-26T18:39:58.986Z,90.98
2022-09-26T18:42:27.830Z,91.34
2022-09-26T18:45:02.546Z,91.40
2022-09-26T18:47:30.054Z,91.47
2022-09-26T18:49:56.465Z,91.78
2022-09-26T18:52:22.803Z,91.63
2022-09-26T18:54:49.162Z,91.82
2022-09-26T18:57:15.506Z,91.76
2022-09-26T18:59:41.826Z,91.55
2022-09-26T19:02:20.630Z,91.61
2022-09-26T19:04:47.259Z,92.26
2022-09-26T19:07:18.662Z,92.00
2022-09-26T19:09:47.332Z,91.83
2022-09-26T19:12:14.825Z,92.41
2022-09-26T19:14:41.178Z,92.41
2022-09-26T19:17:07.496Z,92.98
2022-09-26T19:19:33.863Z,93.19
2022-09-26T19:22:20.473Z,93.05
2022-09-26T19:24:56.954Z,92.84
2022-09-26T19:27:26.532Z,93.13
2022-09-26T19:30:17.199Z,93.24
2022-09-26T19:32:46.933Z,93.05
2022-09-26T19:35:29.717Z,93.28
2022-09-26T19:37:56.880Z,93.64
2022-09-26T19:40:24.439Z,93.47
2022-09-26T19:42:51.516Z,93.61
2022-09-26T19:45:19.441Z,93.40
2022-09-26T19:47:48.824Z,93.25
2022-09-26T19:50:17.748Z,93.41
2022-09-26T19:52:44.654Z,93.17
2022-09-26T19:55:20.926Z,92.98
2022-09-26T19:57:47.274Z,93.19
2022-09-26T20:00:14.153Z,93.25
2022-09-26T20:02:40.721Z,93.12
2022-09-26T20:05:25.330Z,93.29
2022-09-26T20:07:52.723Z,93.88
2022-09-26T20:10:22.008Z,93.89
2022-09-26T20:12:48.755Z,93.33
2022-09-26T20:15:16.506Z,93.44
2022-09-26T20:17:45.377Z,93.83
2022-09-26T20:20:22.914Z,93.73
2022-09-26T20:22:50.918Z,93.93
2022-09-26T20:25:26.596Z,93.77
2022-09-26T20:27:53.720Z,94.04
2022-09-26T20:30:21.003Z,94.09
2022-09-26T20:32:47.297Z,94.40
2022-09-26T20:35:14.761Z,94.31
2022-09-26T20:37:42.009Z,94.00
2022-09-26T20:40:26.776Z,94.50
2022-09-26T20:42:59.096Z,95.01
2022-09-26T20:45:30.388Z,94.86
2022-09-26T20:47:58.123Z,94.90
2022-09-26T20:50:28.515Z,95.32
2022-09-26T20:52:57.146Z,95.07
2022-09-26T20:55:23.459Z,95.27
2022-09-26T20:57:49.789Z,95.12
2022-09-26T21:00:18.236Z,95.00
2022-09-26T21:02:46.513Z,94.90
2022-09-26T21:05:31.781Z,95.03
2022-09-26T21:07:59.989Z,95.30
2022-09-26T21:10:31.976Z,95.51
2022-09-26T21:12:59.784Z,95.73
2022-09-26T21:15:31.513Z,95.57
2022-09-26T21:17:58.563Z,96.09
2022-09-26T21:20:28.788Z,95.35
2022-09-26T21:22:56.015Z,95.21
2022-09-26T21:25:29.336Z,95.30
2022-09-26T21:28:02.505Z,95.37
2022-09-26T21:30:30.311Z,95.42
2022-09-26T21:32:59.266Z,95.38
2022-09-26T21:35:29.603Z,95.27
2022-09-26T21:37:58.337Z,95.38
2022-09-26T21:40:28.130Z,95.34
2022-09-26T21:43:05.863Z,95.30
2022-09-26T21:45:32.652Z,95.17
2022-09-26T21:47:59.067Z,95.34
2022-09-26T21:50:28.277Z,95.49
2022-09-26T21:53:05.755Z,95.38
2022-09-26T21:55:37.511Z,95.40
2022-09-26T21:58:09.271Z,95.46
2022-09-26T22:00:35.596Z,95.49
2022-09-26T22:03:01.932Z,95.48
2022-09-26T22:05:28.266Z,95.75
2022-09-26T22:07:54.609Z,95.77
2022-09-26T22:10:20.983Z,95.10
2022-09-26T22:12:47.288Z,95.34
2022-09-26T22:15:13.695Z,95.53
2022-09-26T22:17:40.022Z,95.42
2022-09-26T22:20:06.667Z,95.38
2022-09-26T22:22:32.994Z,95.50
2022-09-26T22:24:59.337Z,95.36
2022-09-26T22:27:25.645Z,95.23
2022-09-26T22:29:52.005Z,95.39
2022-09-26T22:32:18.300Z,95.05
2022-09-26T22:34:44.630Z,95.33
2022-09-26T22:37:10.963Z,95.47
2022-09-26T22:39:37.355Z,95.91
2022-09-26T22:42:03.748Z,96.20
2022-09-26T22:44:30.089Z,96.19
2022-09-26T22:46:56.405Z,96.04
2022-09-26T22:49:22.749Z,96.02
2022-09-26T22:51:49.054Z,96.30
2022-09-26T22:54:15.385Z,96.36
2022-09-26T22:56:41.755Z,96.75
2022-09-26T22:59:09.882Z,96.71
2022-09-26T23:01:36.427Z,96.98
2022-09-26T23:04:03.181Z,96.51
2022-09-26T23:06:30.905Z,96.51
2022-09-26T23:08:57.406Z,96.36
2022-09-26T23:11:23.802Z,96.53
2022-09-26T23:13:51.942Z,96.46
2022-09-26T23:16:20.815Z,96.65
2022-09-26T23:18:48.210Z,96.46
2022-09-26T23:21:17.514Z,96.25
2022-09-26T23:23:46.278Z,96.25
2022-09-26T23:26:18.245Z,96.07
2022-09-26T23:28:44.553Z,96.18
2022-09-26T23:31:11.715Z,96.62
2022-09-26T23:33:38.696Z,96.59
2022-09-26T23:36:06.183Z,96.56
2022-09-26T23:38:33.265Z,96.55
2022-09-26T23:40:59.692Z,96.54
2022-09-26T23:43:26.032Z,96.53
2022-09-26T23:45:52.441Z,96.80
2022-09-26T23:48:18.782Z,96.49
2022-09-26T23:50:46.294Z,96.29
2022-09-26T23:53:13.496Z,96.01
2022-09-26T23:55:40.024Z,96.33
2022-09-26T23:58:06.815Z,96.64
